Time;durP1;ratioP1;P1;durP2;ratioP2;P2;SDS_P1;SDS_P2;PMS_P1;PMS_P2;Temp;Humidity;BMP_temperature;BMP_pressure;BME280_temperature;BME280_humidity;BME280_pressure;Samples;Min_cycle;Max_cycle;Signal;HPM_P1;HPM_P2
2023/05/20 00:00:17;;;;;;;3.25;2.78;;;18.90;52.80;;;;;;4998111;28;20220;-76
2023/05/20 00:02:44;;;;;;;2.90;2.60;;;18.90;52.90;;;;;;4998227;28;20230;-76
2023/05/20 00:05:11;;;;;;;3.03;2.70;;;18.80;52.70;;;;;;4998563;28;20200;-76
2023/05/20 00:07:38;;;;;;;2.65;2.38;;;18.90;52.70;;;;;;4998599;28;20201;-76
2023/05/20 00:10:06;;;;;;;2.70;2.50;;;18.90;52.80;;;;;;4997848;28;20196;-76
2023/05/20 00:12:35;;;;;;;2.60;2.40;;;18.80;52.80;;;;;;4997373;28;20232;-76
2023/05/20 00:15:02;;;;;;;2.63;2.42;;;18.80;52.70;;;;;;5014983;28;20189;-76
2023/05/20 00:17:29;;;;;;;2.70;2.50;;;18.80;52.70;;;;;;4997438;28;20274;-76
2023/05/20 00:19:56;;;;;;;2.92;2.72;;;18.80;52.70;;;;;;4997535;28;20563;-76
2023/05/20 00:22:23;;;;;;;3.00;2.40;;;18.80;52.60;;;;;;4997250;28;20224;-76
2023/05/20 00:24:50;;;;;;;3.33;2.40;;;18.80;52.70;;;;;;4997370;28;20207;-76
2023/05/20 00:27:16;;;;;;;2.80;2.40;;;18.80;52.70;;;;;;4996893;28;20196;-76
2023/05/20 00:29:45;;;;;;;2.53;2.33;;;18.80;52.60;;;;;;4996907;28;20204;-76
2023/05/20 00:32:12;;;;;;;4.15;2.35;;;18.80;52.70;;;;;;4997448;28;20263;-76
2023/05/20 00:34:40;;;;;;;2.38;2.17;;;18.80;52.70;;;;;;4997562;28;20284;-76
2023/05/20 00:37:07;;;;;;;2.40;2.20;;;18.80;52.70;;;;;;4996726;28;20220;-76
2023/05/20 00:39:34;;;;;;;4.05;2.30;;;18.80;52.90;;;;;;4996790;28;20221;-76
2023/05/20 00:42:02;;;;;;;2.97;2.35;;;18.80;52.70;;;;;;4996598;28;20227;-76
2023/05/20 00:44:29;;;;;;;2.30;2.10;;;18.80;52.70;;;;;;4997347;28;20211;-76
2023/05/20 00:46:58;;;;;;;3.35;2.40;;;18.80;52.70;;;;;;4996900;28;20209;-76
2023/05/20 00:49:24;;;;;;;2.60;2.30;;;18.70;52.60;;;;;;4997263;28;20287;-76
2023/05/20 00:51:51;;;;;;;2.72;2.47;;;18.80;52.60;;;;;;4996659;28;20667;-76
2023/05/20 00:54:18;;;;;;;3.45;2.40;;;18.80;52.60;;;;;;4996621;28;20224;-76
2023/05/20 00:56:46;;;;;;;2.80;2.50;;;18.80;52.50;;;;;;4996623;28;20706;-76
2023/05/20 00:59:13;;;;;;;3.63;2.38;;;18.80;52.50;;;;;;4996433;28;20193;-76
2023/05/20 01:01:40;;;;;;;2.38;2.10;;;18.80;52.50;;;;;;4996519;28;20220;-76
2023/05/20 01:04:09;;;;;;;2.50;2.30;;;18.80;52.50;;;;;;4996490;28;20201;-76
2023/05/20 01:06:37;;;;;;;2.67;2.47;;;18.80;52.50;;;;;;4996711;28;20766;-76
2023/05/20 01:09:05;;;;;;;2.55;2.35;;;18.80;52.50;;;;;;4996393;28;20625;-76
2023/05/20 01:11:34;;;;;;;3.35;2.63;;;18.80;52.40;;;;;;4996282;28;20635;-76
2023/05/20 01:14:02;;;;;;;2.55;2.35;;;18.80;52.50;;;;;;4996211;28;20224;-76
2023/05/20 01:16:30;;;;;;;3.55;2.30;;;18.70;52.40;;;;;;4996113;28;20220;-76
2023/05/20 01:18:57;;;;;;;2.53;2.33;;;18.80;52.40;;;;;;4996531;28;20203;-76
2023/05/20 01:21:25;;;;;;;2.78;2.50;;;18.70;52.40;;;;;;4996207;28;20220;-76
2023/05/20 01:23:54;;;;;;;3.53;2.58;;;18.80;52.50;;;;;;4996403;28;20275;-75
2023/05/20 01:26:25;;;;;;;2.60;2.40;;;18.80;52.60;;;;;;4996373;28;20200;-75
2023/05/20 01:28:52;;;;;;;2.60;2.40;;;18.70;52.40;;;;;;4996787;28;20193;-75
2023/05/20 01:31:25;;;;;;;2.40;2.20;;;18.80;52.50;;;;;;4996194;28;20216;-75
2023/05/20 01:33:54;;;;;;;2.45;2.13;;;18.70;52.40;;;;;;4996490;28;20254;-75
2023/05/20 01:36:22;;;;;;;2.33;2.13;;;18.70;52.40;;;;;;4996639;28;20268;-75
2023/05/20 01:38:48;;;;;;;2.58;2.38;;;18.70;52.50;;;;;;5014379;28;20193;-75
2023/05/20 01:41:17;;;;;;;2.50;2.30;;;18.70;52.50;;;;;;5001040;28;20217;-75
2023/05/20 01:43:44;;;;;;;2.63;2.38;;;18.70;52.50;;;;;;5000598;28;20207;-75
2023/05/20 01:46:11;;;;;;;2.47;2.28;;;18.70;52.50;;;;;;5000191;28;20211;-75
2023/05/20 01:48:39;;;;;;;2.65;2.45;;;18.70;52.50;;;;;;5000274;28;20211;-75
2023/05/20 01:51:06;;;;;;;2.80;2.50;;;18.80;52.60;;;;;;5000271;28;20216;-75
2023/05/20 01:53:33;;;;;;;3.67;2.40;;;18.70;52.50;;;;;;4999887;28;20208;-75
2023/05/20 01:56:00;;;;;;;2.85;2.58;;;18.70;52.50;;;;;;4999813;28;20199;-75
2023/05/20 01:58:29;;;;;;;2.65;2.28;;;18.70;52.50;;;;;;4999624;28;20249;-75
2023/05/20 02:00:56;;;;;;;2.75;2.50;;;18.70;52.60;;;;;;4999661;28;20259;-75
2023/05/20 02:03:23;;;;;;;2.45;2.25;;;18.60;52.50;;;;;;4999641;28;20295;-75
2023/05/20 02:05:50;;;;;;;4.95;2.60;;;18.70;52.50;;;;;;4999643;28;20193;-75
2023/05/20 02:08:17;;;;;;;2.60;2.40;;;18.70;52.50;;;;;;4999578;28;20310;-75
2023/05/20 02:10:44;;;;;;;2.75;2.55;;;18.70;52.60;;;;;;4999486;28;20296;-75
2023/05/20 02:13:12;;;;;;;2.55;2.35;;;18.70;52.60;;;;;;4984763;28;20193;-76
2023/05/20 02:15:42;;;;;;;2.58;2.38;;;18.70;52.50;;;;;;4999686;28;20224;-76
2023/05/20 02:18:11;;;;;;;2.88;2.60;;;18.70;52.40;;;;;;4999219;28;20243;-76
2023/05/20 02:20:38;;;;;;;2.50;2.30;;;18.70;52.40;;;;;;4999233;28;20216;-76
2023/05/20 02:23:05;;;;;;;2.30;2.10;;;18.60;52.40;;;;;;4999044;28;20217;-76
2023/05/20 02:25:32;;;;;;;2.92;2.63;;;18.60;52.40;;;;;;4999099;28;20201;-76
2023/05/20 02:27:59;;;;;;;2.90;2.42;;;18.60;52.40;;;;;;4999062;28;20208;-76
2023/05/20 02:30:28;;;;;;;3.35;2.55;;;18.60;52.40;;;;;;4999201;28;20192;-76
2023/05/20 02:32:56;;;;;;;2.50;2.30;;;18.60;52.30;;;;;;4999198;28;20240;-76
2023/05/20 02:35:24;;;;;;;2.80;2.60;;;18.60;52.30;;;;;;4999175;28;20205;-76
2023/05/20 02:37:51;;;;;;;2.97;2.33;;;18.60;52.40;;;;;;4998796;28;20725;-76
2023/05/20 02:40:18;;;;;;;3.63;2.42;;;18.60;52.30;;;;;;4998889;28;20200;-76
2023/05/20 02:42:45;;;;;;;2.60;2.40;;;18.60;52.40;;;;;;4999029;28;20225;-76
2023/05/20 02:45:12;;;;;;;3.03;2.53;;;18.60;52.40;;;;;;4998698;28;20287;-75
2023/05/20 02:47:39;;;;;;;3.13;2.50;;;18.60;52.30;;;;;;4998064;28;20292;-75
2023/05/20 02:50:08;;;;;;;2.60;2.40;;;18.60;52.30;;;;;;4997631;28;20196;-75
2023/05/20 02:52:38;;;;;;;3.10;2.60;;;18.60;52.40;;;;;;4996273;28;20715;-75
2023/05/20 02:55:06;;;;;;;2.70;2.50;;;18.60;52.40;;;;;;4997740;28;20725;-75
2023/05/20 02:57:36;;;;;;;4.05;2.38;;;18.60;52.40;;;;;;4997493;28;20307;-75
2023/05/20 03:00:07;;;;;;;2.90;2.50;;;18.50;52.30;;;;;;4997973;28;20196;-75
2023/05/20 03:02:34;;;;;;;2.55;2.35;;;18.50;52.40;;;;;;4997657;28;20713;-75
2023/05/20 03:05:01;;;;;;;2.40;2.20;;;18.50;52.30;;;;;;4997665;28;20257;-75
2023/05/20 03:07:30;;;;;;;2.30;2.17;;;18.50;52.40;;;;;;4997354;28;20287;-75
2023/05/20 03:09:57;;;;;;;2.53;2.10;;;18.50;52.40;;;;;;4997748;28;20201;-75
2023/05/20 03:12:25;;;;;;;2.58;2.38;;;18.50;52.60;;;;;;4997283;28;20228;-76
2023/05/20 03:14:54;;;;;;;3.05;2.47;;;18.50;52.50;;;;;;4997305;28;20227;-76
2023/05/20 03:17:22;;;;;;;2.35;2.15;;;18.50;52.60;;;;;;4997353;28;20236;-76
2023/05/20 03:19:49;;;;;;;2.35;2.15;;;18.50;52.60;;;;;;4997291;28;20615;-76
2023/05/20 03:22:17;;;;;;;2.65;2.20;;;18.50;52.70;;;;;;4997152;28;20221;-76
2023/05/20 03:24:45;;;;;;;2.28;2.08;;;18.50;52.60;;;;;;4997968;28;20201;-76
2023/05/20 03:27:13;;;;;;;2.30;2.10;;;18.50;52.60;;;;;;4981841;28;20196;-76
2023/05/20 03:29:41;;;;;;;2.65;2.38;;;18.60;52.50;;;;;;4997249;28;20224;-76
2023/05/20 03:32:09;;;;;;;2.60;2.40;;;18.60;52.50;;;;;;4997358;28;20223;-77
2023/05/20 03:34:37;;;;;;;2.30;2.10;;;18.60;52.30;;;;;;4997976;28;20251;-77
2023/05/20 03:37:05;;;;;;;2.30;2.10;;;18.70;52.30;;;;;;4997941;28;20197;-77
2023/05/20 03:39:32;;;;;;;2.22;2.10;;;18.70;52.20;;;;;;4997084;28;20215;-77
2023/05/20 03:42:01;;;;;;;2.50;2.30;;;18.70;52.20;;;;;;4997398;28;20676;-77
2023/05/20 03:44:29;;;;;;;2.53;2.33;;;18.80;52.10;;;;;;4998113;28;20196;-77
2023/05/20 03:46:56;;;;;;;2.00;1.90;;;18.80;52.20;;;;;;4946321;28;1493383;-77
2023/05/20 03:49:23;;;;;;;2.72;2.40;;;18.80;52.10;;;;;;5015590;28;20203;-77
2023/05/20 03:51:51;;;;;;;2.00;1.90;;;18.80;52.10;;;;;;4997498;28;20219;-77
2023/05/20 03:54:18;;;;;;;2.17;2.05;;;18.80;52.00;;;;;;4997800;28;20200;-76
2023/05/20 03:56:50;;;;;;;2.35;2.15;;;18.80;52.00;;;;;;4998481;28;20694;-76
2023/05/20 03:59:21;;;;;;;3.15;2.30;;;18.80;52.00;;;;;;4997712;28;20304;-76
2023/05/20 04:01:48;;;;;;;2.30;2.10;;;18.80;52.00;;;;;;4998222;28;20224;-76
2023/05/20 04:04:15;;;;;;;2.42;2.22;;;18.80;52.00;;;;;;4997604;28;20651;-76
2023/05/20 04:06:42;;;;;;;2.50;2.30;;;18.80;52.00;;;;;;4997842;28;20215;-76
2023/05/20 04:09:10;;;;;;;2.35;2.15;;;18.80;51.90;;;;;;4998032;28;20247;-76
2023/05/20 04:11:38;;;;;;;2.83;2.15;;;18.80;51.90;;;;;;5017444;28;20248;-76
2023/05/20 04:14:04;;;;;;;2.60;2.40;;;18.80;52.10;;;;;;4998580;28;20619;-76
2023/05/20 04:16:33;;;;;;;2.42;2.22;;;18.90;52.00;;;;;;4998706;28;20675;-76
2023/05/20 04:19:01;;;;;;;2.50;2.30;;;18.90;52.00;;;;;;4998523;28;20217;-76
2023/05/20 04:21:28;;;;;;;2.92;2.60;;;18.90;51.90;;;;;;4998245;28;20235;-76
2023/05/20 04:23:55;;;;;;;2.38;2.17;;;18.90;52.00;;;;;;4997877;28;20208;-76
2023/05/20 04:26:22;;;;;;;3.35;2.10;;;18.90;51.90;;;;;;4997430;28;20200;-76
2023/05/20 04:28:50;;;;;;;2.17;1.98;;;18.90;51.90;;;;;;4997603;28;20193;-76
2023/05/20 04:31:17;;;;;;;2.58;2.25;;;18.90;51.90;;;;;;4997516;28;20228;-76
2023/05/20 04:33:46;;;;;;;2.60;2.40;;;18.90;52.50;;;;;;4997744;28;20665;-76
2023/05/20 04:36:14;;;;;;;2.30;2.10;;;18.90;51.80;;;;;;4997174;28;20247;-76
2023/05/20 04:38:43;;;;;;;2.45;1.92;;;18.90;51.80;;;;;;4996921;28;20227;-76
2023/05/20 04:41:10;;;;;;;2.35;2.00;;;19.00;51.90;;;;;;4996858;28;20323;-76
2023/05/20 04:43:38;;;;;;;2.83;2.10;;;19.00;51.90;;;;;;4997013;28;20205;-76
2023/05/20 04:46:06;;;;;;;2.28;2.08;;;19.00;51.90;;;;;;5012343;22;20789;-80
2023/05/20 04:48:33;;;;;;;2.85;2.08;;;19.00;51.90;;;;;;4997502;28;20537;-80
2023/05/20 04:51:02;;;;;;;2.50;2.30;;;19.00;51.80;;;;;;4981592;28;20567;-80
2023/05/20 04:53:32;;;;;;;2.50;2.30;;;19.00;51.80;;;;;;4998071;28;20212;-80
2023/05/20 04:56:02;;;;;;;2.30;2.10;;;19.10;51.80;;;;;;4997429;28;20204;-80
2023/05/20 04:58:30;;;;;;;2.33;2.13;;;19.10;52.40;;;;;;4997103;28;20300;-80
2023/05/20 05:00:57;;;;;;;2.00;1.90;;;19.10;51.80;;;;;;4998164;28;20201;-80
2023/05/20 05:03:25;;;;;;;2.30;2.10;;;19.10;51.70;;;;;;4997667;28;20228;-80
2023/05/20 05:05:56;;;;;;;2.50;2.30;;;19.10;51.80;;;;;;4996975;28;20205;-80
2023/05/20 05:08:25;;;;;;;2.53;2.33;;;19.10;51.80;;;;;;4980946;28;20177;-79
2023/05/20 05:10:53;;;;;;;2.40;2.20;;;19.10;51.80;;;;;;4996815;28;20284;-79
2023/05/20 05:13:20;;;;;;;2.40;2.20;;;19.10;51.80;;;;;;4997067;28;20211;-79
2023/05/20 05:15:48;;;;;;;2.00;1.90;;;19.10;51.80;;;;;;5000458;28;20196;-79
2023/05/20 05:18:17;;;;;;;2.35;2.17;;;19.10;51.70;;;;;;5001151;28;20688;-79
2023/05/20 05:20:45;;;;;;;2.65;2.45;;;19.10;51.90;;;;;;5001003;28;20286;-79
2023/05/20 05:23:12;;;;;;;2.30;2.10;;;19.10;51.80;;;;;;5000817;28;20660;-79
2023/05/20 05:25:40;;;;;;;2.80;2.60;;;19.20;52.00;;;;;;5001481;28;20643;-79
2023/05/20 05:28:08;;;;;;;2.55;2.35;;;19.20;51.80;;;;;;5000771;28;20295;-79
2023/05/20 05:30:36;;;;;;;2.20;2.10;;;19.20;51.80;;;;;;5001243;28;20196;-79
2023/05/20 05:33:03;;;;;;;4.00;2.40;;;19.20;51.80;;;;;;5001185;28;20304;-79
2023/05/20 05:35:30;;;;;;;2.80;2.40;;;19.20;51.80;;;;;;5001949;28;20223;-79
2023/05/20 05:37:58;;;;;;;3.00;2.75;;;19.20;51.80;;;;;;5004793;28;20220;-79
2023/05/20 05:40:25;;;;;;;2.95;2.63;;;19.30;51.80;;;;;;5013675;28;20243;-79
2023/05/20 05:42:55;;;;;;;2.63;2.42;;;19.30;51.60;;;;;;4998440;28;20220;-79
2023/05/20 05:45:22;;;;;;;2.90;2.33;;;19.30;51.50;;;;;;5012873;28;20232;-79
2023/05/20 05:47:49;;;;;;;3.30;2.40;;;19.40;51.50;;;;;;5005081;28;20574;-79
2023/05/20 05:50:17;;;;;;;2.53;2.33;;;19.50;51.40;;;;;;5004700;28;20215;-79
2023/05/20 05:52:44;;;;;;;2.65;2.45;;;19.50;51.30;;;;;;5004177;28;20224;-79
2023/05/20 05:55:11;;;;;;;2.60;2.40;;;19.60;51.30;;;;;;5003643;28;20609;-79
2023/05/20 05:57:38;;;;;;;2.60;2.40;;;19.70;51.10;;;;;;5001826;28;20197;-79
2023/05/20 06:00:09;;;;;;;2.40;2.20;;;19.70;50.90;;;;;;5000791;28;20205;-79
2023/05/20 06:02:46;;;;;;;2.40;2.22;;;19.80;50.70;;;;;;5018538;28;20219;-79
2023/05/20 06:05:23;;;;;;;2.65;2.45;;;19.80;50.50;;;;;;5003132;28;20207;-79
2023/05/20 06:07:53;;;;;;;2.50;2.30;;;19.80;50.40;;;;;;5002648;28;20189;-80
2023/05/20 06:10:21;;;;;;;2.42;2.25;;;19.80;50.20;;;;;;4986270;28;20660;-78
2023/05/20 06:12:49;;;;;;;2.30;2.10;;;19.90;50.20;;;;;;5001213;28;20220;-78
2023/05/20 06:15:18;;;;;;;2.30;2.10;;;19.90;50.10;;;;;;5000290;28;20303;-78
2023/05/20 06:17:46;;;;;;;2.72;2.53;;;20.00;50.20;;;;;;4999895;28;20205;-78
2023/05/20 06:20:14;;;;;;;2.65;2.45;;;20.00;50.10;;;;;;5000201;28;20204;-78
2023/05/20 06:22:41;;;;;;;2.40;2.20;;;20.10;50.00;;;;;;4999844;28;20765;-79
2023/05/20 06:25:10;;;;;;;2.40;2.20;;;20.20;50.40;;;;;;4999692;28;20201;-79
2023/05/20 06:27:37;;;;;;;2.00;1.90;;;20.30;49.80;;;;;;5000491;28;20278;-79
2023/05/20 06:30:07;;;;;;;2.00;1.90;;;20.30;49.50;;;;;;5002463;28;20188;-79
2023/05/20 06:32:36;;;;;;;2.35;2.15;;;20.40;49.50;;;;;;5001943;28;20221;-79
2023/05/20 06:35:04;;;;;;;2.20;2.10;;;20.40;49.30;;;;;;5000026;28;20578;-79
2023/05/20 06:37:31;;;;;;;2.28;2.10;;;20.50;49.30;;;;;;5000149;28;20197;-79
2023/05/20 06:39:58;;;;;;;2.30;2.10;;;20.50;49.10;;;;;;5001162;28;20235;-79
2023/05/20 06:42:25;;;;;;;2.75;2.50;;;20.60;49.00;;;;;;5001489;28;20220;-79
2023/05/20 06:45:06;;;;;;;2.50;2.30;;;20.70;48.90;;;;;;5001162;28;20192;-79
2023/05/20 06:47:56;;;;;;;2.13;2.00;;;20.80;48.60;;;;;;5001492;28;20216;-78
2023/05/20 06:50:27;;;;;;;1.90;1.80;;;21.00;48.20;;;;;;4984473;28;20220;-78
2023/05/20 06:52:54;;;;;;;2.72;2.53;;;21.20;47.80;;;;;;4999947;28;20240;-78
2023/05/20 06:55:22;;;;;;;2.25;2.15;;;21.30;47.60;;;;;;4983838;28;20656;-78
2023/05/20 06:57:50;;;;;;;2.60;2.40;;;21.30;47.40;;;;;;4999772;28;20196;-78
2023/05/20 07:00:18;;;;;;;2.25;2.05;;;21.30;47.30;;;;;;4999734;28;20217;-78
2023/05/20 07:02:46;;;;;;;2.45;2.33;;;21.40;47.30;;;;;;4998893;28;20307;-80
2023/05/20 07:05:16;;;;;;;2.25;2.13;;;21.40;47.30;;;;;;4999387;28;20224;-80
2023/05/20 07:07:43;;;;;;;2.78;2.53;;;21.40;47.00;;;;;;4999314;28;20216;-80
2023/05/20 07:10:11;;;;;;;2.10;1.95;;;21.50;47.00;;;;;;5000426;28;20614;-80
2023/05/20 07:12:37;;;;;;;2.28;2.08;;;21.60;47.00;;;;;;4984652;28;20220;-79
2023/05/20 07:15:06;;;;;;;2.40;2.20;;;21.70;46.70;;;;;;5000034;28;20266;-79
2023/05/20 07:17:34;;;;;;;1.90;1.80;;;21.80;46.40;;;;;;4999279;28;20208;-79
2023/05/20 07:20:02;;;;;;;2.50;2.30;;;22.00;46.20;;;;;;4998859;28;20584;-79
2023/05/20 07:22:32;;;;;;;2.17;2.08;;;22.10;45.70;;;;;;4999472;28;20305;-79
2023/05/20 07:25:09;;;;;;;2.20;2.00;;;22.30;45.60;;;;;;4999616;28;20587;-79
2023/05/20 07:27:37;;;;;;;2.13;2.03;;;22.40;45.20;;;;;;4999828;28;20192;-79
2023/05/20 07:30:05;;;;;;;1.77;1.67;;;22.50;45.00;;;;;;5000658;28;20197;-79
2023/05/20 07:32:33;;;;;;;2.67;2.00;;;22.50;44.80;;;;;;5000246;28;20289;-79
2023/05/20 07:35:00;;;;;;;2.28;2.10;;;22.60;44.70;;;;;;5001362;28;20204;-79
2023/05/20 07:37:28;;;;;;;1.98;1.88;;;22.60;44.60;;;;;;5000364;28;20307;-79
2023/05/20 07:39:57;;;;;;;1.88;1.77;;;22.60;44.70;;;;;;4999994;28;20223;-79
2023/05/20 07:42:24;;;;;;;2.13;2.03;;;22.50;44.70;;;;;;5000061;28;20225;-79
2023/05/20 07:44:55;;;;;;;1.95;1.85;;;22.50;44.70;;;;;;4999577;28;20189;-79
2023/05/20 07:47:23;;;;;;;2.17;1.98;;;22.50;44.80;;;;;;5000933;28;20200;-80
2023/05/20 07:49:51;;;;;;;2.63;2.00;;;22.50;44.90;;;;;;5000037;28;20192;-80
2023/05/20 07:52:19;;;;;;;2.15;2.05;;;22.40;44.90;;;;;;4999128;28;20646;-79
2023/05/20 07:54:46;;;;;;;2.20;2.00;;;22.40;45.60;;;;;;4998494;28;20213;-79
2023/05/20 07:57:16;;;;;;;2.10;2.00;;;22.40;45.10;;;;;;4983870;28;20201;-79
2023/05/20 07:59:43;;;;;;;1.88;1.77;;;22.40;45.00;;;;;;4999575;28;20564;-79
2023/05/20 08:02:11;;;;;;;2.03;1.90;;;22.40;44.90;;;;;;4999752;28;20227;-79
2023/05/20 08:04:38;;;;;;;2.22;2.10;;;22.50;44.90;;;;;;4999657;28;20258;-79
2023/05/20 08:07:06;;;;;;;2.08;1.98;;;22.50;44.80;;;;;;4999982;28;20670;-79
2023/05/20 08:09:44;;;;;;;1.92;1.83;;;22.50;44.80;;;;;;4985637;28;20662;-79
2023/05/20 08:12:11;;;;;;;1.90;1.80;;;22.50;44.80;;;;;;4982197;28;20216;-79
2023/05/20 08:14:42;;;;;;;1.90;1.80;;;22.50;44.80;;;;;;4998295;28;20198;-79
2023/05/20 08:17:09;;;;;;;2.00;1.90;;;22.40;44.80;;;;;;4982546;28;20196;-79
2023/05/20 08:19:37;;;;;;;2.35;2.15;;;22.50;45.00;;;;;;4998438;28;20228;-80
2023/05/20 08:22:04;;;;;;;1.83;1.73;;;22.50;44.90;;;;;;4998963;28;20216;-79
2023/05/20 08:24:32;;;;;;;2.10;2.00;;;22.60;44.80;;;;;;4998930;28;20196;-79
2023/05/20 08:26:59;;;;;;;2.00;1.90;;;22.60;44.70;;;;;;4999118;28;20537;-79
2023/05/20 08:29:27;;;;;;;2.20;2.10;;;22.60;44.60;;;;;;4983322;28;20203;-79
2023/05/20 08:31:56;;;;;;;2.28;2.10;;;22.60;44.70;;;;;;4998127;28;20244;-79
2023/05/20 08:34:25;;;;;;;2.35;2.15;;;22.50;44.70;;;;;;4999352;28;20197;-79
2023/05/20 08:36:52;;;;;;;2.40;2.20;;;22.50;45.00;;;;;;4997329;28;20193;-78
2023/05/20 08:39:19;;;;;;;2.15;2.05;;;22.50;45.10;;;;;;4997311;28;20219;-78
2023/05/20 08:41:47;;;;;;;2.20;2.00;;;22.50;45.20;;;;;;4982473;28;20267;-78
2023/05/20 08:44:14;;;;;;;2.90;2.20;;;22.50;45.60;;;;;;4997335;28;20223;-78
2023/05/20 08:46:42;;;;;;;3.20;3.00;;;22.50;45.60;;;;;;4998117;28;20204;-79
2023/05/20 08:49:11;;;;;;;2.78;2.58;;;22.60;45.90;;;;;;4997398;28;20674;-79
2023/05/20 08:51:38;;;;;;;2.30;2.20;;;23.00;45.20;;;;;;4998485;28;20210;-79
2023/05/20 08:54:05;;;;;;;2.60;2.40;;;23.40;44.40;;;;;;4997303;28;20240;-79
2023/05/20 08:56:32;;;;;;;4.25;2.63;;;23.70;43.90;;;;;;4998214;28;20258;-79
2023/05/20 08:58:59;;;;;;;2.92;2.42;;;24.20;43.00;;;;;;4997330;28;20228;-78
2023/05/20 09:01:26;;;;;;;4.30;3.25;;;24.70;42.20;;;;;;4998186;28;20219;-78
2023/05/20 09:03:53;;;;;;;3.30;3.00;;;25.00;42.10;;;;;;4999366;28;20205;-78
2023/05/20 09:06:22;;;;;;;3.60;3.30;;;25.40;41.30;;;;;;5000726;28;20196;-78
2023/05/20 09:08:50;;;;;;;3.42;3.13;;;25.70;41.20;;;;;;4998299;28;20682;-78
2023/05/20 09:11:17;;;;;;;4.35;3.95;;;25.80;41.10;;;;;;4997745;28;20255;-78
2023/05/20 09:13:44;;;;;;;4.13;3.72;;;25.80;41.40;;;;;;4999694;28;20203;-78
2023/05/20 09:16:12;;;;;;;5.05;3.40;;;25.70;41.50;;;;;;4997692;28;20208;-78
2023/05/20 09:18:39;;;;;;;5.18;3.60;;;25.70;41.20;;;;;;4998066;28;20201;-79
2023/05/20 09:21:06;;;;;;;4.05;3.58;;;25.50;41.50;;;;;;4998152;28;20307;-79
2023/05/20 09:23:36;;;;;;;5.22;4.00;;;25.30;42.00;;;;;;4997994;28;20573;-79
2023/05/20 09:26:04;;;;;;;4.43;3.97;;;25.10;42.40;;;;;;4997662;28;20327;-79
2023/05/20 09:28:31;;;;;;;4.20;3.80;;;24.90;43.10;;;;;;4997779;28;20192;-79
2023/05/20 09:30:58;;;;;;;4.07;3.60;;;24.70;43.50;;;;;;4998343;28;20193;-79
2023/05/20 09:33:28;;;;;;;4.70;4.00;;;24.50;43.70;;;;;;4999344;28;20205;-79
2023/05/20 09:36:02;;;;;;;4.10;3.80;;;24.30;43.80;;;;;;5000651;28;20196;-79
2023/05/20 09:38:34;;;;;;;4.40;4.00;;;24.30;44.00;;;;;;4998500;28;20200;-79
2023/05/20 09:41:03;;;;;;;4.47;4.07;;;24.30;44.20;;;;;;4998162;28;20710;-79
2023/05/20 09:43:30;;;;;;;4.30;3.90;;;24.50;43.80;;;;;;4997482;28;20229;-80
2023/05/20 09:45:59;;;;;;;4.35;3.95;;;24.60;43.50;;;;;;4997286;28;20295;-79
2023/05/20 09:48:27;;;;;;;4.68;3.72;;;24.90;43.30;;;;;;4966420;28;20271;-79
2023/05/20 09:50:54;;;;;;;4.22;3.83;;;25.40;42.70;;;;;;4980912;28;20197;-79
2023/05/20 09:53:21;;;;;;;4.30;3.50;;;25.80;41.60;;;;;;4997089;28;20240;-79
2023/05/20 09:55:49;;;;;;;4.10;3.80;;;26.10;41.00;;;;;;4996931;28;20214;-79
2023/05/20 09:58:18;;;;;;;4.75;3.80;;;26.10;40.70;;;;;;4996889;28;20200;-79
2023/05/20 10:00:45;;;;;;;3.95;3.53;;;25.90;41.20;;;;;;5016447;28;20208;-79
2023/05/20 10:03:12;;;;;;;4.93;4.00;;;25.60;41.80;;;;;;5001410;28;20196;-79
2023/05/20 10:05:43;;;;;;;4.10;3.80;;;25.40;42.70;;;;;;5001113;28;20204;-78
2023/05/20 10:08:30;;;;;;;5.35;4.47;;;25.10;43.00;;;;;;5000624;28;20279;-78
2023/05/20 10:11:13;;;;;;;4.45;4.05;;;24.90;43.70;;;;;;5000468;28;20189;-78
2023/05/20 10:13:59;;;;;;;4.63;4.13;;;24.80;43.80;;;;;;5000958;28;20200;-79
2023/05/20 10:16:29;;;;;;;4.68;4.10;;;24.80;43.80;;;;;;4999982;28;20192;-79
2023/05/20 10:18:58;;;;;;;4.82;4.20;;;24.90;43.70;;;;;;5001263;28;20201;-79
2023/05/20 10:21:26;;;;;;;4.88;4.07;;;24.90;43.90;;;;;;5000388;28;20572;-79
2023/05/20 10:23:53;;;;;;;4.57;4.28;;;24.90;43.80;;;;;;5000382;28;20200;-79
2023/05/20 10:26:20;;;;;;;4.53;4.00;;;24.90;44.20;;;;;;5000689;28;20200;-79
2023/05/20 10:28:47;;;;;;;4.43;4.03;;;24.90;44.30;;;;;;4999861;28;20207;-79
2023/05/20 10:31:17;;;;;;;4.40;4.00;;;24.80;44.40;;;;;;4999998;28;20537;-79
2023/05/20 10:33:44;;;;;;;4.80;4.40;;;24.60;44.70;;;;;;4999934;28;20232;-79
2023/05/20 10:36:13;;;;;;;4.30;4.00;;;24.40;45.50;;;;;;4999642;28;20311;-79
2023/05/20 10:38:49;;;;;;;4.95;4.45;;;24.40;45.10;;;;;;4999296;28;20208;-79
2023/05/20 10:41:21;;;;;;;4.55;4.10;;;24.30;45.10;;;;;;4999918;28;20243;-79
2023/05/20 10:43:48;;;;;;;4.78;4.38;;;24.30;45.30;;;;;;4999847;28;20219;-79
2023/05/20 10:46:19;;;;;;;4.72;4.28;;;24.20;45.70;;;;;;5038066;22;20231;-76
2023/05/20 10:48:46;;;;;;;5.95;4.05;;;24.10;46.00;;;;;;5000895;28;20195;-76
2023/05/20 10:51:15;;;;;;;4.57;4.18;;;24.10;46.20;;;;;;5000987;28;20236;-76
2023/05/20 10:53:45;;;;;;;6.38;4.47;;;24.30;45.90;;;;;;5018983;28;20220;-76
2023/05/20 10:56:17;;;;;;;4.72;4.07;;;24.40;45.80;;;;;;5000449;28;20617;-76
2023/05/20 10:58:44;;;;;;;5.10;3.78;;;24.50;45.60;;;;;;5000303;28;20196;-76
2023/05/20 11:01:12;;;;;;;4.65;3.80;;;24.60;45.50;;;;;;5002309;28;20239;-78
2023/05/20 11:03:42;;;;;;;6.05;4.18;;;24.50;45.30;;;;;;5001377;28;20295;-75
2023/05/20 11:06:12;;;;;;;4.60;4.20;;;24.50;45.70;;;;;;5000499;28;20192;-75
2023/05/20 11:08:39;;;;;;;4.43;4.00;;;24.40;45.70;;;;;;5000137;28;20200;-76
2023/05/20 11:11:06;;;;;;;4.43;4.03;;;24.40;45.80;;;;;;5000172;28;20714;-75
2023/05/20 11:13:34;;;;;;;4.28;3.85;;;24.40;45.90;;;;;;4982835;28;20209;-75
2023/05/20 11:16:01;;;;;;;3.60;3.30;;;24.30;45.00;;;;;;5002309;28;20208;-78
2023/05/20 11:18:30;;;;;;;3.95;3.45;;;24.30;43.90;;;;;;5003634;28;20247;-78
2023/05/20 11:20:59;;;;;;;3.55;3.25;;;24.20;44.60;;;;;;4983893;28;20217;-75
2023/05/20 11:23:28;;;;;;;3.80;3.50;;;24.20;43.80;;;;;;5017625;28;20203;-78
2023/05/20 11:25:55;;;;;;;3.63;3.33;;;24.10;44.10;;;;;;5000406;28;20196;-76
2023/05/20 11:28:22;;;;;;;4.50;3.63;;;24.10;44.20;;;;;;4998991;28;20197;-75
2023/05/20 11:30:50;;;;;;;4.40;4.00;;;24.00;44.20;;;;;;4998901;28;20208;-76
2023/05/20 11:33:17;;;;;;;5.05;4.20;;;23.90;44.20;;;;;;4998654;28;20209;-76
2023/05/20 11:35:45;;;;;;;3.88;3.58;;;23.80;44.20;;;;;;4998859;28;20201;-76
2023/05/20 11:38:14;;;;;;;4.03;3.72;;;23.80;44.00;;;;;;4998204;28;20197;-75
2023/05/20 11:40:44;;;;;;;5.38;4.00;;;23.80;43.90;;;;;;4998471;28;20657;-75
2023/05/20 11:43:11;;;;;;;4.60;4.20;;;23.60;43.80;;;;;;4998519;28;20251;-75
2023/05/20 11:45:42;;;;;;;3.92;3.53;;;23.60;43.90;;;;;;4998485;28;20205;-75
2023/05/20 11:48:10;;;;;;;4.63;4.22;;;23.60;44.00;;;;;;5016400;28;20193;-76
2023/05/20 11:50:39;;;;;;;3.85;3.50;;;23.60;44.00;;;;;;4998914;28;20677;-76
2023/05/20 11:53:09;;;;;;;4.32;3.92;;;23.60;44.20;;;;;;4998853;28;20308;-76
2023/05/20 11:55:46;;;;;;;4.30;3.83;;;23.60;44.10;;;;;;4998430;28;20193;-76
2023/05/20 11:58:16;;;;;;;3.95;3.65;;;23.70;44.40;;;;;;4998556;28;20208;-76
2023/05/20 12:00:43;;;;;;;3.97;3.65;;;23.70;44.20;;;;;;4998302;28;20217;-76
2023/05/20 12:03:10;;;;;;;4.50;4.10;;;23.70;44.30;;;;;;4998480;28;20212;-76
2023/05/20 12:05:36;;;;;;;3.95;3.60;;;23.60;44.20;;;;;;4998294;28;20663;-75
2023/05/20 12:08:04;;;;;;;4.57;4.15;;;23.60;44.20;;;;;;4998527;28;20216;-75
2023/05/20 12:10:31;;;;;;;4.30;3.90;;;23.50;44.00;;;;;;4998147;28;20193;-75
2023/05/20 12:12:59;;;;;;;4.82;3.88;;;23.50;44.20;;;;;;4982016;28;20320;-75
2023/05/20 12:15:27;;;;;;;4.35;4.05;;;23.50;44.00;;;;;;4998403;28;20655;-76
2023/05/20 12:17:54;;;;;;;4.43;3.90;;;23.60;44.20;;;;;;4998072;28;20200;-75
2023/05/20 12:20:23;;;;;;;3.88;3.58;;;23.60;44.00;;;;;;4997819;28;20623;-75
2023/05/20 12:22:50;;;;;;;3.90;3.60;;;23.60;43.80;;;;;;4997537;28;20271;-75
2023/05/20 12:25:18;;;;;;;4.07;3.78;;;23.70;44.00;;;;;;5015423;28;20189;-75
2023/05/20 12:27:46;;;;;;;4.53;3.58;;;23.70;44.00;;;;;;4997827;28;20207;-75
2023/05/20 12:30:15;;;;;;;3.67;3.38;;;23.80;44.10;;;;;;5015133;28;20268;-75
2023/05/20 12:32:43;;;;;;;4.72;4.07;;;23.80;44.20;;;;;;4997771;28;20223;-75
2023/05/20 12:35:10;;;;;;;3.90;3.60;;;23.80;44.30;;;;;;4998128;28;20615;-76
2023/05/20 12:37:37;;;;;;;3.75;3.40;;;23.90;44.40;;;;;;4998675;28;20205;-75
2023/05/20 12:40:07;;;;;;;4.40;4.03;;;23.90;44.40;;;;;;4997659;28;20221;-76
2023/05/20 12:42:34;;;;;;;4.30;3.90;;;23.90;44.40;;;;;;4997535;28;20614;-75
2023/05/20 12:45:01;;;;;;;4.20;3.83;;;23.90;44.40;;;;;;5015075;28;20188;-76
2023/05/20 12:47:29;;;;;;;3.78;3.40;;;23.90;44.40;;;;;;4997503;28;20205;-75
2023/05/20 12:49:56;;;;;;;4.00;3.60;;;23.90;44.40;;;;;;4997570;28;20200;-76
2023/05/20 12:52:23;;;;;;;4.22;3.72;;;23.90;44.50;;;;;;4997446;28;20641;-75